North Island Naval Air Station-Halsey Field
KNZY : now visible

Airfield :











YOU CAN JOIN US ON...

 
LOGIN :

Register | Disclaimer

   EN    FR    IT 

 









Legend :    VFR   Marginal VFR   IFR   Intensive IFR   Very Intensive IFR
Visi :
Ceiling :
>= 8 km
>= 3000ft
5 to 8 km
1000 to 3000 ft
1500m to 5 km
500 to 1000 ft
800 to 1500m
200 to 500 ft
< 800m
< 200 ft
Symbols :   Thunderstorms  Fog  Heavy snow  Heavy precipitations  Wind > 20 kt






- Airport Elevation : 26 ft


KNZY - North Island Naval Air Station-Halsey Field

CURRENT METAR :
  • 102052Z 31004KT 10SM BKN220 19/11 A3018 RMK AO2 SLP220 T01890106 58017 $

EXPIRED METARs :
  • 101952Z 31004KT 10SM BKN250 19/07 A3020 RMK AO2 SLP226 T01940072 $
  • 101852Z VRB03KT 10SM BKN250 17/09 A3023 RMK AO2 SLP236 T01670089 $

TAF TAF KNZY
Valid from the 10 at 15:00 until the 11 at 15:00 UTC


1015/1115 VRB06KT 9999 FEW012 SCT250 QNH3015INS
TEMPO 1015/1018 BKN250
FM101800 26009KT 9999 FEW012 BKN250 QNH3012INS
FM110100 VRB06KT 9999 SCT012 BKN250 QNH3011INS
FM110800 VRB06KT 9999 FEW012 SCT250 QNH3009INS T18/1021Z T11/1112Z FS30103



MET'MAP, your aeronautical weather chart ! - Copyright ORBIFLY December 2007 - Disclaimer

ORBIFLY MET'MAP TEAM :

Programming & Development : Alexandra Zaïnal
Concept & original design : Baudouin d'Aumeries
Assistance for programming : Marc-Olivier Méhu
Technical & hardware support : Manuel Goepfert

Contact : metmap@orbifly.com




SOURCES & CREDITS :

   NOAA       Earth
Advisory